sensor_id;sensor_type;location;lat;lon;timestamp;P1;durP1;ratioP1;P2;durP2;ratioP2
10174;SDS011;18221;38.704;0.152;2022-12-16T00:12:24;2.03;;;1.20;;
10174;SDS011;18221;38.704;0.152;2022-12-16T00:14:53;1.37;;;1.20;;
10174;SDS011;18221;38.704;0.152;2022-12-16T00:17:21;1.20;;;1.10;;
10174;SDS011;18221;38.704;0.152;2022-12-16T00:19:50;2.57;;;1.30;;
10174;SDS011;18221;38.704;0.152;2022-12-16T00:22:18;1.47;;;1.10;;
10174;SDS011;18221;38.704;0.152;2022-12-16T00:24:47;3.87;;;1.37;;
10174;SDS011;18221;38.704;0.152;2022-12-16T00:27:16;2.47;;;1.20;;
10174;SDS011;18221;38.704;0.152;2022-12-16T00:29:46;1.97;;;1.10;;
10174;SDS011;18221;38.704;0.152;2022-12-16T00:32:15;2.83;;;1.30;;
10174;SDS011;18221;38.704;0.152;2022-12-16T00:34:43;4.17;;;1.27;;
10174;SDS011;18221;38.704;0.152;2022-12-16T00:37:12;2.20;;;1.10;;
10174;SDS011;18221;38.704;0.152;2022-12-16T00:39:40;2.03;;;1.20;;
10174;SDS011;18221;38.704;0.152;2022-12-16T00:42:09;1.53;;;1.20;;
10174;SDS011;18221;38.704;0.152;2022-12-16T00:44:37;2.23;;;1.30;;
10174;SDS011;18221;38.704;0.152;2022-12-16T00:47:07;2.93;;;1.10;;
10174;SDS011;18221;38.704;0.152;2022-12-16T00:49:36;1.30;;;1.20;;
10174;SDS011;18221;38.704;0.152;2022-12-16T00:52:05;1.10;;;1.00;;
10174;SDS011;18221;38.704;0.152;2022-12-16T00:54:34;1.97;;;1.20;;
10174;SDS011;18221;38.704;0.152;2022-12-16T00:57:02;2.60;;;1.10;;
10174;SDS011;18221;38.704;0.152;2022-12-16T00:59:31;2.23;;;1.10;;
10174;SDS011;18221;38.704;0.152;2022-12-16T01:01:59;2.27;;;1.20;;
10174;SDS011;18221;38.704;0.152;2022-12-16T01:04:29;1.77;;;1.00;;
10174;SDS011;18221;38.704;0.152;2022-12-16T01:06:58;1.43;;;1.00;;
10174;SDS011;18221;38.704;0.152;2022-12-16T01:09:26;2.33;;;1.23;;
10174;SDS011;18221;38.704;0.152;2022-12-16T01:11:55;1.63;;;1.00;;
10174;SDS011;18221;38.704;0.152;2022-12-16T01:14:24;1.77;;;1.03;;
10174;SDS011;18221;38.704;0.152;2022-12-16T01:16:52;2.07;;;1.50;;
10174;SDS011;18221;38.704;0.152;2022-12-16T01:19:21;1.33;;;1.03;;
10174;SDS011;18221;38.704;0.152;2022-12-16T01:21:51;1.90;;;1.30;;
10174;SDS011;18221;38.704;0.152;2022-12-16T01:24:20;2.57;;;1.20;;
10174;SDS011;18221;38.704;0.152;2022-12-16T01:26:48;1.73;;;1.20;;
10174;SDS011;18221;38.704;0.152;2022-12-16T01:29:17;1.47;;;1.13;;
10174;SDS011;18221;38.704;0.152;2022-12-16T01:31:46;2.23;;;1.30;;
10174;SDS011;18221;38.704;0.152;2022-12-16T01:34:15;3.13;;;1.30;;
10174;SDS011;18221;38.704;0.152;2022-12-16T01:36:44;1.73;;;1.30;;
10174;SDS011;18221;38.704;0.152;2022-12-16T01:39:15;3.90;;;1.10;;
10174;SDS011;18221;38.704;0.152;2022-12-16T01:41:43;1.40;;;1.20;;
10174;SDS011;18221;38.704;0.152;2022-12-16T01:44:13;3.60;;;1.23;;
10174;SDS011;18221;38.704;0.152;2022-12-16T01:46:43;2.17;;;1.20;;
10174;SDS011;18221;38.704;0.152;2022-12-16T01:49:18;1.80;;;1.10;;
10174;SDS011;18221;38.704;0.152;2022-12-16T01:51:54;2.70;;;1.50;;
10174;SDS011;18221;38.704;0.152;2022-12-16T01:54:29;1.90;;;1.17;;
10174;SDS011;18221;38.704;0.152;2022-12-16T01:57:07;2.20;;;1.20;;
10174;SDS011;18221;38.704;0.152;2022-12-16T01:59:42;3.40;;;1.40;;
10174;SDS011;18221;38.704;0.152;2022-12-16T02:02:15;3.20;;;1.33;;
10174;SDS011;18221;38.704;0.152;2022-12-16T02:04:45;1.60;;;1.33;;
10174;SDS011;18221;38.704;0.152;2022-12-16T02:07:28;3.33;;;1.40;;
10174;SDS011;18221;38.704;0.152;2022-12-16T02:09:58;2.47;;;1.30;;
10174;SDS011;18221;38.704;0.152;2022-12-16T02:12:28;3.37;;;1.30;;
10174;SDS011;18221;38.704;0.152;2022-12-16T02:15:13;1.70;;;1.30;;
10174;SDS011;18221;38.704;0.152;2022-12-16T02:17:59;1.97;;;1.20;;
10174;SDS011;18221;38.704;0.152;2022-12-16T02:27:28;1.77;;;1.20;;
10174;SDS011;18221;38.704;0.152;2022-12-16T02:30:36;1.43;;;1.10;;
10174;SDS011;18221;38.704;0.152;2022-12-16T02:36:41;1.93;;;1.10;;
10174;SDS011;18221;38.704;0.152;2022-12-16T02:39:24;1.83;;;1.13;;
10174;SDS011;18221;38.704;0.152;2022-12-16T02:42:05;2.73;;;1.30;;
10174;SDS011;18221;38.704;0.152;2022-12-16T02:44:47;3.47;;;1.20;;
10174;SDS011;18221;38.704;0.152;2022-12-16T02:47:27;1.20;;;1.10;;
10174;SDS011;18221;38.704;0.152;2022-12-16T02:49:57;2.00;;;1.10;;
10174;SDS011;18221;38.704;0.152;2022-12-16T02:52:28;1.80;;;1.27;;
10174;SDS011;18221;38.704;0.152;2022-12-16T02:55:02;1.83;;;1.20;;
10174;SDS011;18221;38.704;0.152;2022-12-16T03:00:46;1.00;;;0.90;;
10174;SDS011;18221;38.704;0.152;2022-12-16T03:03:29;1.73;;;1.10;;
10174;SDS011;18221;38.704;0.152;2022-12-16T03:06:06;1.17;;;1.07;;
10174;SDS011;18221;38.704;0.152;2022-12-16T03:08:40;1.27;;;1.10;;
10174;SDS011;18221;38.704;0.152;2022-12-16T03:11:16;2.10;;;1.40;;
10174;SDS011;18221;38.704;0.152;2022-12-16T03:13:47;1.70;;;1.00;;
10174;SDS011;18221;38.704;0.152;2022-12-16T03:16:20;2.40;;;1.10;;
10174;SDS011;18221;38.704;0.152;2022-12-16T03:18:57;1.17;;;1.00;;
10174;SDS011;18221;38.704;0.152;2022-12-16T03:21:32;1.87;;;1.10;;
10174;SDS011;18221;38.704;0.152;2022-12-16T03:24:09;2.13;;;0.90;;
10174;SDS011;18221;38.704;0.152;2022-12-16T03:26:42;3.13;;;1.20;;
10174;SDS011;18221;38.704;0.152;2022-12-16T03:29:22;1.23;;;1.13;;
10174;SDS011;18221;38.704;0.152;2022-12-16T03:32:01;1.80;;;1.10;;
10174;SDS011;18221;38.704;0.152;2022-12-16T03:34:38;1.40;;;1.30;;
10174;SDS011;18221;38.704;0.152;2022-12-16T03:37:14;1.77;;;1.00;;
10174;SDS011;18221;38.704;0.152;2022-12-16T03:39:46;1.50;;;1.10;;
10174;SDS011;18221;38.704;0.152;2022-12-16T03:42:19;1.20;;;1.10;;
10174;SDS011;18221;38.704;0.152;2022-12-16T03:44:48;1.47;;;1.00;;
10174;SDS011;18221;38.704;0.152;2022-12-16T03:47:17;2.73;;;1.17;;
10174;SDS011;18221;38.704;0.152;2022-12-16T03:49:48;1.13;;;1.00;;
10174;SDS011;18221;38.704;0.152;2022-12-16T03:52:17;1.90;;;1.07;;
10174;SDS011;18221;38.704;0.152;2022-12-16T03:54:46;2.00;;;1.13;;
10174;SDS011;18221;38.704;0.152;2022-12-16T03:57:15;1.33;;;1.23;;
10174;SDS011;18221;38.704;0.152;2022-12-16T03:59:44;1.10;;;1.00;;
10174;SDS011;18221;38.704;0.152;2022-12-16T04:02:13;2.10;;;1.13;;
10174;SDS011;18221;38.704;0.152;2022-12-16T04:04:42;1.43;;;1.20;;
10174;SDS011;18221;38.704;0.152;2022-12-16T04:07:12;2.30;;;1.10;;
10174;SDS011;18221;38.704;0.152;2022-12-16T04:09:49;2.10;;;1.10;;
10174;SDS011;18221;38.704;0.152;2022-12-16T04:12:19;1.70;;;1.30;;
10174;SDS011;18221;38.704;0.152;2022-12-16T04:15:05;2.80;;;1.10;;
10174;SDS011;18221;38.704;0.152;2022-12-16T04:17:52;2.57;;;1.30;;
10174;SDS011;18221;38.704;0.152;2022-12-16T04:20:39;1.40;;;1.17;;
10174;SDS011;18221;38.704;0.152;2022-12-16T04:23:31;2.60;;;1.40;;
10174;SDS011;18221;38.704;0.152;2022-12-16T04:26:19;2.03;;;1.17;;
10174;SDS011;18221;38.704;0.152;2022-12-16T04:28:48;2.30;;;1.20;;
10174;SDS011;18221;38.704;0.152;2022-12-16T04:31:17;1.33;;;1.20;;
10174;SDS011;18221;38.704;0.152;2022-12-16T04:33:46;1.80;;;1.17;;
10174;SDS011;18221;38.704;0.152;2022-12-16T04:36:31;1.17;;;1.03;;
10174;SDS011;18221;38.704;0.152;2022-12-16T04:39:18;1.43;;;1.20;;
10174;SDS011;18221;38.704;0.152;2022-12-16T04:42:04;1.10;;;0.90;;
10174;SDS011;18221;38.704;0.152;2022-12-16T04:44:50;3.17;;;1.40;;
10174;SDS011;18221;38.704;0.152;2022-12-16T04:47:35;2.47;;;1.10;;
10174;SDS011;18221;38.704;0.152;2022-12-16T04:50:29;1.73;;;1.10;;
10174;SDS011;18221;38.704;0.152;2022-12-16T04:53:14;1.47;;;1.20;;
10174;SDS011;18221;38.704;0.152;2022-12-16T04:56:01;1.37;;;1.10;;
10174;SDS011;18221;38.704;0.152;2022-12-16T04:58:47;3.20;;;1.10;;
10174;SDS011;18221;38.704;0.152;2022-12-16T05:01:32;1.93;;;1.10;;
10174;SDS011;18221;38.704;0.152;2022-12-16T05:04:17;1.83;;;1.10;;
10174;SDS011;18221;38.704;0.152;2022-12-16T05:07:03;1.23;;;1.13;;
10174;SDS011;18221;38.704;0.152;2022-12-16T05:09:48;1.90;;;1.20;;
10174;SDS011;18221;38.704;0.152;2022-12-16T05:12:35;2.00;;;1.30;;
10174;SDS011;18221;38.704;0.152;2022-12-16T05:15:21;1.87;;;1.20;;
10174;SDS011;18221;38.704;0.152;2022-12-16T05:18:07;1.63;;;1.20;;
10174;SDS011;18221;38.704;0.152;2022-12-16T05:20:53;1.63;;;1.10;;
10174;SDS011;18221;38.704;0.152;2022-12-16T05:23:40;1.93;;;1.17;;
10174;SDS011;18221;38.704;0.152;2022-12-16T05:26:26;2.40;;;1.30;;
10174;SDS011;18221;38.704;0.152;2022-12-16T05:29:13;1.60;;;1.00;;
10174;SDS011;18221;38.704;0.152;2022-12-16T05:31:58;1.80;;;1.20;;
10174;SDS011;18221;38.704;0.152;2022-12-16T05:34:44;1.33;;;1.20;;
10174;SDS011;18221;38.704;0.152;2022-12-16T05:37:30;2.40;;;1.20;;
10174;SDS011;18221;38.704;0.152;2022-12-16T05:40:15;2.97;;;1.23;;
10174;SDS011;18221;38.704;0.152;2022-12-16T05:43:01;2.20;;;1.30;;
10174;SDS011;18221;38.704;0.152;2022-12-16T05:45:48;1.43;;;1.20;;
10174;SDS011;18221;38.704;0.152;2022-12-16T05:48:34;1.67;;;1.43;;
10174;SDS011;18221;38.704;0.152;2022-12-16T05:51:30;2.83;;;1.40;;
10174;SDS011;18221;38.704;0.152;2022-12-16T05:54:16;2.53;;;1.30;;
10174;SDS011;18221;38.704;0.152;2022-12-16T05:57:01;1.20;;;1.10;;
10174;SDS011;18221;38.704;0.152;2022-12-16T05:59:47;1.17;;;1.10;;
10174;SDS011;18221;38.704;0.152;2022-12-16T06:02:34;1.93;;;1.33;;
10174;SDS011;18221;38.704;0.152;2022-12-16T06:05:19;2.07;;;1.20;;
10174;SDS011;18221;38.704;0.152;2022-12-16T06:08:01;2.13;;;1.30;;
10174;SDS011;18221;38.704;0.152;2022-12-16T06:10:47;2.40;;;1.47;;
10174;SDS011;18221;38.704;0.152;2022-12-16T06:13:33;1.40;;;1.30;;
10174;SDS011;18221;38.704;0.152;2022-12-16T06:16:18;1.23;;;1.13;;
10174;SDS011;18221;38.704;0.152;2022-12-16T06:19:06;2.70;;;1.37;;
10174;SDS011;18221;38.704;0.152;2022-12-16T06:21:52;1.77;;;1.20;;
10174;SDS011;18221;38.704;0.152;2022-12-16T06:24:38;3.43;;;1.30;;
10174;SDS011;18221;38.704;0.152;2022-12-16T06:27:23;2.70;;;1.30;;
10174;SDS011;18221;38.704;0.152;2022-12-16T06:30:09;2.03;;;1.30;;
10174;SDS011;18221;38.704;0.152;2022-12-16T06:32:55;1.67;;;1.10;;
10174;SDS011;18221;38.704;0.152;2022-12-16T06:35:42;3.13;;;1.33;;
10174;SDS011;18221;38.704;0.152;2022-12-16T06:38:28;3.00;;;1.40;;
10174;SDS011;18221;38.704;0.152;2022-12-16T06:41:14;1.33;;;1.10;;
10174;SDS011;18221;38.704;0.152;2022-12-16T06:44:00;3.00;;;1.47;;
10174;SDS011;18221;38.704;0.152;2022-12-16T06:46:45;2.23;;;1.30;;
10174;SDS011;18221;38.704;0.152;2022-12-16T06:49:31;2.70;;;1.30;;
10174;SDS011;18221;38.704;0.152;2022-12-16T06:52:19;1.67;;;1.37;;
10174;SDS011;18221;38.704;0.152;2022-12-16T06:55:05;1.63;;;1.20;;
10174;SDS011;18221;38.704;0.152;2022-12-16T06:57:55;2.37;;;1.50;;
10174;SDS011;18221;38.704;0.152;2022-12-16T07:00:41;2.63;;;1.37;;
10174;SDS011;18221;38.704;0.152;2022-12-16T07:03:28;2.60;;;1.47;;
10174;SDS011;18221;38.704;0.152;2022-12-16T07:06:14;1.97;;;1.37;;
10174;SDS011;18221;38.704;0.152;2022-12-16T07:09:01;1.40;;;1.00;;
10174;SDS011;18221;38.704;0.152;2022-12-16T07:11:47;2.20;;;1.30;;
10174;SDS011;18221;38.704;0.152;2022-12-16T07:14:33;2.60;;;1.40;;
10174;SDS011;18221;38.704;0.152;2022-12-16T07:17:19;1.63;;;1.50;;
10174;SDS011;18221;38.704;0.152;2022-12-16T07:20:04;2.63;;;1.33;;
10174;SDS011;18221;38.704;0.152;2022-12-16T07:22:51;1.87;;;1.23;;
10174;SDS011;18221;38.704;0.152;2022-12-16T07:25:38;4.53;;;1.30;;
10174;SDS011;18221;38.704;0.152;2022-12-16T07:28:23;3.17;;;1.40;;
10174;SDS011;18221;38.704;0.152;2022-12-16T07:31:09;2.80;;;1.37;;
10174;SDS011;18221;38.704;0.152;2022-12-16T07:33:54;4.73;;;1.90;;
10174;SDS011;18221;38.704;0.152;2022-12-16T07:36:40;4.10;;;1.40;;
10174;SDS011;18221;38.704;0.152;2022-12-16T07:39:26;6.07;;;1.77;;
10174;SDS011;18221;38.704;0.152;2022-12-16T07:42:13;5.27;;;1.90;;
10174;SDS011;18221;38.704;0.152;2022-12-16T07:44:58;4.73;;;1.50;;
10174;SDS011;18221;38.704;0.152;2022-12-16T07:47:47;4.97;;;1.57;;
10174;SDS011;18221;38.704;0.152;2022-12-16T07:50:33;5.23;;;1.60;;
10174;SDS011;18221;38.704;0.152;2022-12-16T07:53:19;4.17;;;1.70;;
10174;SDS011;18221;38.704;0.152;2022-12-16T07:56:05;4.73;;;1.70;;
10174;SDS011;18221;38.704;0.152;2022-12-16T07:58:53;4.33;;;1.70;;
10174;SDS011;18221;38.704;0.152;2022-12-16T08:01:39;4.47;;;1.87;;
10174;SDS011;18221;38.704;0.152;2022-12-16T08:04:24;4.33;;;1.60;;
10174;SDS011;18221;38.704;0.152;2022-12-16T08:07:10;5.53;;;1.93;;
10174;SDS011;18221;38.704;0.152;2022-12-16T08:09:55;4.27;;;1.93;;
10174;SDS011;18221;38.704;0.152;2022-12-16T08:12:41;4.87;;;1.80;;
10174;SDS011;18221;38.704;0.152;2022-12-16T08:15:28;1.70;;;1.40;;
10174;SDS011;18221;38.704;0.152;2022-12-16T08:18:14;4.63;;;1.60;;
10174;SDS011;18221;38.704;0.152;2022-12-16T08:20:59;3.63;;;1.70;;
10174;SDS011;18221;38.704;0.152;2022-12-16T08:23:45;3.67;;;1.80;;
10174;SDS011;18221;38.704;0.152;2022-12-16T08:26:30;3.97;;;1.90;;
10174;SDS011;18221;38.704;0.152;2022-12-16T08:29:16;4.80;;;2.10;;
10174;SDS011;18221;38.704;0.152;2022-12-16T08:32:03;3.30;;;2.00;;
10174;SDS011;18221;38.704;0.152;2022-12-16T08:34:49;5.47;;;2.10;;
10174;SDS011;18221;38.704;0.152;2022-12-16T08:37:37;3.17;;;1.73;;
10174;SDS011;18221;38.704;0.152;2022-12-16T08:40:22;4.53;;;1.90;;
10174;SDS011;18221;38.704;0.152;2022-12-16T08:43:08;3.33;;;1.70;;
10174;SDS011;18221;38.704;0.152;2022-12-16T08:45:53;3.73;;;1.80;;
10174;SDS011;18221;38.704;0.152;2022-12-16T08:48:41;3.63;;;1.70;;
10174;SDS011;18221;38.704;0.152;2022-12-16T08:51:27;3.20;;;1.87;;
10174;SDS011;18221;38.704;0.152;2022-12-16T08:54:13;3.37;;;1.70;;
10174;SDS011;18221;38.704;0.152;2022-12-16T08:56:59;3.57;;;1.90;;
10174;SDS011;18221;38.704;0.152;2022-12-16T08:59:44;3.83;;;1.97;;
10174;SDS011;18221;38.704;0.152;2022-12-16T09:02:30;6.90;;;2.47;;
10174;SDS011;18221;38.704;0.152;2022-12-16T09:05:19;5.70;;;3.73;;
10174;SDS011;18221;38.704;0.152;2022-12-16T09:08:04;9.57;;;5.30;;
10174;SDS011;18221;38.704;0.152;2022-12-16T09:10:50;9.73;;;6.40;;
10174;SDS011;18221;38.704;0.152;2022-12-16T09:13:35;8.27;;;5.50;;
10174;SDS011;18221;38.704;0.152;2022-12-16T09:16:23;9.70;;;6.17;;
10174;SDS011;18221;38.704;0.152;2022-12-16T09:19:09;10.53;;;6.00;;
10174;SDS011;18221;38.704;0.152;2022-12-16T09:21:57;9.07;;;5.00;;
10174;SDS011;18221;38.704;0.152;2022-12-16T09:24:39;7.13;;;4.53;;
10174;SDS011;18221;38.704;0.152;2022-12-16T09:27:24;7.77;;;4.87;;
10174;SDS011;18221;38.704;0.152;2022-12-16T09:30:10;6.60;;;4.20;;
10174;SDS011;18221;38.704;0.152;2022-12-16T09:32:56;7.40;;;3.77;;
10174;SDS011;18221;38.704;0.152;2022-12-16T09:35:41;7.87;;;3.40;;
10174;SDS011;18221;38.704;0.152;2022-12-16T09:38:27;6.27;;;3.37;;
10174;SDS011;18221;38.704;0.152;2022-12-16T09:41:22;8.10;;;3.20;;
10174;SDS011;18221;38.704;0.152;2022-12-16T09:44:26;8.27;;;3.10;;
10174;SDS011;18221;38.704;0.152;2022-12-16T09:47:32;10.83;;;3.50;;
10174;SDS011;18221;38.704;0.152;2022-12-16T09:50:28;6.90;;;2.93;;
10174;SDS011;18221;38.704;0.152;2022-12-16T09:53:16;5.33;;;2.83;;
10174;SDS011;18221;38.704;0.152;2022-12-16T09:56:06;6.90;;;2.87;;
10174;SDS011;18221;38.704;0.152;2022-12-16T09:59:03;7.70;;;3.20;;
10174;SDS011;18221;38.704;0.152;2022-12-16T10:01:55;6.10;;;3.33;;
10174;SDS011;18221;38.704;0.152;2022-12-16T10:04:42;4.37;;;2.73;;
10174;SDS011;18221;38.704;0.152;2022-12-16T10:07:34;6.57;;;2.53;;
10174;SDS011;18221;38.704;0.152;2022-12-16T10:10:27;6.40;;;2.60;;
10174;SDS011;18221;38.704;0.152;2022-12-16T10:13:31;6.10;;;2.70;;
10174;SDS011;18221;38.704;0.152;2022-12-16T10:16:30;4.50;;;2.43;;
10174;SDS011;18221;38.704;0.152;2022-12-16T10:19:33;8.43;;;3.03;;
10174;SDS011;18221;38.704;0.152;2022-12-16T10:22:31;5.70;;;2.33;;
10174;SDS011;18221;38.704;0.152;2022-12-16T10:25:25;4.73;;;2.00;;
10174;SDS011;18221;38.704;0.152;2022-12-16T10:28:23;4.70;;;2.50;;
10174;SDS011;18221;38.704;0.152;2022-12-16T10:31:21;6.17;;;2.87;;
10174;SDS011;18221;38.704;0.152;2022-12-16T10:34:08;6.67;;;3.10;;
10174;SDS011;18221;38.704;0.152;2022-12-16T10:37:07;5.23;;;2.20;;
10174;SDS011;18221;38.704;0.152;2022-12-16T10:39:59;3.77;;;1.80;;
10174;SDS011;18221;38.704;0.152;2022-12-16T10:42:46;1.47;;;1.30;;
10174;SDS011;18221;38.704;0.152;2022-12-16T10:45:47;4.17;;;1.67;;
10174;SDS011;18221;38.704;0.152;2022-12-16T10:48:37;2.30;;;1.40;;
10174;SDS011;18221;38.704;0.152;2022-12-16T10:51:23;3.00;;;1.73;;
10174;SDS011;18221;38.704;0.152;2022-12-16T10:54:18;3.43;;;1.93;;
10174;SDS011;18221;38.704;0.152;2022-12-16T10:57:14;6.23;;;2.10;;
10174;SDS011;18221;38.704;0.152;2022-12-16T11:00:12;3.90;;;2.03;;
10174;SDS011;18221;38.704;0.152;2022-12-16T11:03:19;2.87;;;1.60;;
10174;SDS011;18221;38.704;0.152;2022-12-16T11:06:07;3.73;;;1.63;;
10174;SDS011;18221;38.704;0.152;2022-12-16T11:08:55;3.83;;;1.90;;
10174;SDS011;18221;38.704;0.152;2022-12-16T11:12:19;3.83;;;1.57;;
10174;SDS011;18221;38.704;0.152;2022-12-16T11:15:17;3.47;;;1.80;;
10174;SDS011;18221;38.704;0.152;2022-12-16T11:18:10;5.30;;;1.60;;
10174;SDS011;18221;38.704;0.152;2022-12-16T11:21:10;3.17;;;1.50;;
10174;SDS011;18221;38.704;0.152;2022-12-16T11:24:12;2.53;;;1.40;;
10174;SDS011;18221;38.704;0.152;2022-12-16T11:26:59;3.07;;;1.50;;
10174;SDS011;18221;38.704;0.152;2022-12-16T11:29:48;4.57;;;1.90;;
10174;SDS011;18221;38.704;0.152;2022-12-16T11:32:35;6.67;;;1.70;;
10174;SDS011;18221;38.704;0.152;2022-12-16T11:35:23;3.43;;;1.60;;
10174;SDS011;18221;38.704;0.152;2022-12-16T11:38:17;3.23;;;1.40;;
10174;SDS011;18221;38.704;0.152;2022-12-16T11:41:11;3.80;;;1.30;;
10174;SDS011;18221;38.704;0.152;2022-12-16T11:44:16;3.83;;;1.40;;
10174;SDS011;18221;38.704;0.152;2022-12-16T11:47:08;4.07;;;1.93;;
10174;SDS011;18221;38.704;0.152;2022-12-16T11:50:06;2.57;;;1.40;;
10174;SDS011;18221;38.704;0.152;2022-12-16T11:52:57;2.87;;;1.50;;
10174;SDS011;18221;38.704;0.152;2022-12-16T11:55:48;2.07;;;1.47;;
10174;SDS011;18221;38.704;0.152;2022-12-16T11:58:39;2.50;;;1.60;;
10174;SDS011;18221;38.704;0.152;2022-12-16T12:01:32;3.20;;;1.40;;
10174;SDS011;18221;38.704;0.152;2022-12-16T12:04:25;2.77;;;1.40;;
10174;SDS011;18221;38.704;0.152;2022-12-16T12:07:21;2.43;;;1.43;;
10174;SDS011;18221;38.704;0.152;2022-12-16T12:10:26;8.33;;;2.10;;
10174;SDS011;18221;38.704;0.152;2022-12-16T12:13:40;2.83;;;1.27;;
10174;SDS011;18221;38.704;0.152;2022-12-16T12:16:42;4.00;;;1.53;;
10174;SDS011;18221;38.704;0.152;2022-12-16T12:19:45;3.80;;;1.57;;
10174;SDS011;18221;38.704;0.152;2022-12-16T12:22:43;13.23;;;2.60;;
10174;SDS011;18221;38.704;0.152;2022-12-16T12:25:31;3.73;;;1.60;;
10174;SDS011;18221;38.704;0.152;2022-12-16T12:28:34;3.13;;;1.60;;
10174;SDS011;18221;38.704;0.152;2022-12-16T12:31:36;8.43;;;2.63;;
10174;SDS011;18221;38.704;0.152;2022-12-16T12:34:34;5.93;;;1.93;;
10174;SDS011;18221;38.704;0.152;2022-12-16T12:37:32;5.07;;;1.90;;
10174;SDS011;18221;38.704;0.152;2022-12-16T12:40:29;6.87;;;1.90;;
10174;SDS011;18221;38.704;0.152;2022-12-16T12:43:30;8.33;;;1.80;;
10174;SDS011;18221;38.704;0.152;2022-12-16T12:46:35;7.57;;;1.90;;
10174;SDS011;18221;38.704;0.152;2022-12-16T12:49:30;3.30;;;1.60;;
10174;SDS011;18221;38.704;0.152;2022-12-16T12:52:32;5.67;;;2.00;;
10174;SDS011;18221;38.704;0.152;2022-12-16T12:55:39;5.40;;;1.93;;
10174;SDS011;18221;38.704;0.152;2022-12-16T12:58:33;5.20;;;2.20;;
10174;SDS011;18221;38.704;0.152;2022-12-16T13:01:24;10.30;;;2.73;;
10174;SDS011;18221;38.704;0.152;2022-12-16T13:04:15;15.73;;;2.87;;
10174;SDS011;18221;38.704;0.152;2022-12-16T13:07:04;4.33;;;2.00;;
10174;SDS011;18221;38.704;0.152;2022-12-16T13:13:30;3.23;;;1.77;;
10174;SDS011;18221;38.704;0.152;2022-12-16T13:19:54;4.87;;;1.97;;
10174;SDS011;18221;38.704;0.152;2022-12-16T13:22:42;4.10;;;2.03;;
10174;SDS011;18221;38.704;0.152;2022-12-16T13:25:36;5.30;;;2.10;;
10174;SDS011;18221;38.704;0.152;2022-12-16T13:28:30;3.80;;;2.00;;
10174;SDS011;18221;38.704;0.152;2022-12-16T13:31:18;3.43;;;1.73;;
10174;SDS011;18221;38.704;0.152;2022-12-16T13:34:21;4.47;;;2.00;;
10174;SDS011;18221;38.704;0.152;2022-12-16T13:37:17;3.43;;;1.80;;
10174;SDS011;18221;38.704;0.152;2022-12-16T13:40:21;3.67;;;1.43;;
10174;SDS011;18221;38.704;0.152;2022-12-16T13:43:15;7.90;;;2.00;;
10174;SDS011;18221;38.704;0.152;2022-12-16T13:46:39;2.63;;;1.70;;
10174;SDS011;18221;38.704;0.152;2022-12-16T13:49:41;3.60;;;1.90;;
10174;SDS011;18221;38.704;0.152;2022-12-16T13:55:41;3.23;;;1.70;;
10174;SDS011;18221;38.704;0.152;2022-12-16T13:58:40;4.73;;;1.97;;
10174;SDS011;18221;38.704;0.152;2022-12-16T14:01:35;4.13;;;2.23;;
10174;SDS011;18221;38.704;0.152;2022-12-16T14:04:36;5.70;;;2.10;;
10174;SDS011;18221;38.704;0.152;2022-12-16T14:07:30;4.87;;;2.37;;
10174;SDS011;18221;38.704;0.152;2022-12-16T14:10:24;6.93;;;2.63;;
10174;SDS011;18221;38.704;0.152;2022-12-16T14:13:15;4.53;;;2.53;;
10174;SDS011;18221;38.704;0.152;2022-12-16T14:16:12;4.03;;;2.27;;
10174;SDS011;18221;38.704;0.152;2022-12-16T14:19:20;3.73;;;2.30;;
10174;SDS011;18221;38.704;0.152;2022-12-16T14:22:23;3.23;;;2.13;;
10174;SDS011;18221;38.704;0.152;2022-12-16T14:25:28;5.70;;;2.40;;
10174;SDS011;18221;38.704;0.152;2022-12-16T14:28:16;5.63;;;2.30;;
10174;SDS011;18221;38.704;0.152;2022-12-16T14:31:13;4.90;;;2.47;;
10174;SDS011;18221;38.704;0.152;2022-12-16T14:34:12;4.63;;;2.30;;
10174;SDS011;18221;38.704;0.152;2022-12-16T14:37:06;4.97;;;2.30;;
10174;SDS011;18221;38.704;0.152;2022-12-16T14:39:57;6.37;;;2.60;;
10174;SDS011;18221;38.704;0.152;2022-12-16T14:42:43;6.50;;;2.50;;
10174;SDS011;18221;38.704;0.152;2022-12-16T14:45:32;8.20;;;2.87;;
10174;SDS011;18221;38.704;0.152;2022-12-16T14:48:23;4.73;;;2.50;;
10174;SDS011;18221;38.704;0.152;2022-12-16T14:51:23;3.70;;;2.17;;
10174;SDS011;18221;38.704;0.152;2022-12-16T14:54:20;5.80;;;2.77;;
10174;SDS011;18221;38.704;0.152;2022-12-16T14:57:13;3.87;;;2.43;;
10174;SDS011;18221;38.704;0.152;2022-12-16T15:00:10;4.70;;;2.67;;
10174;SDS011;18221;38.704;0.152;2022-12-16T15:02:59;4.97;;;2.77;;
10174;SDS011;18221;38.704;0.152;2022-12-16T15:05:54;5.40;;;2.50;;
10174;SDS011;18221;38.704;0.152;2022-12-16T15:08:43;5.87;;;2.70;;
10174;SDS011;18221;38.704;0.152;2022-12-16T15:11:34;4.63;;;2.30;;
10174;SDS011;18221;38.704;0.152;2022-12-16T15:14:29;6.67;;;2.60;;
10174;SDS011;18221;38.704;0.152;2022-12-16T15:17:23;6.07;;;2.63;;
10174;SDS011;18221;38.704;0.152;2022-12-16T15:20:15;5.87;;;2.40;;
10174;SDS011;18221;38.704;0.152;2022-12-16T15:23:09;5.10;;;2.80;;
10174;SDS011;18221;38.704;0.152;2022-12-16T15:26:05;6.93;;;2.47;;
10174;SDS011;18221;38.704;0.152;2022-12-16T15:28:51;5.83;;;2.90;;
10174;SDS011;18221;38.704;0.152;2022-12-16T15:31:39;4.73;;;2.83;;
10174;SDS011;18221;38.704;0.152;2022-12-16T15:34:26;8.57;;;3.47;;
10174;SDS011;18221;38.704;0.152;2022-12-16T15:37:17;4.40;;;3.00;;
10174;SDS011;18221;38.704;0.152;2022-12-16T15:40:20;4.83;;;3.00;;
10174;SDS011;18221;38.704;0.152;2022-12-16T15:43:22;8.03;;;3.10;;
10174;SDS011;18221;38.704;0.152;2022-12-16T15:46:16;7.47;;;2.87;;
10174;SDS011;18221;38.704;0.152;2022-12-16T15:49:14;3.57;;;2.70;;
10174;SDS011;18221;38.704;0.152;2022-12-16T15:55:22;5.77;;;3.00;;
10174;SDS011;18221;38.704;0.152;2022-12-16T15:58:13;6.40;;;2.87;;
10174;SDS011;18221;38.704;0.152;2022-12-16T16:01:06;4.33;;;2.77;;
10174;SDS011;18221;38.704;0.152;2022-12-16T16:03:53;5.20;;;3.10;;
10174;SDS011;18221;38.704;0.152;2022-12-16T16:06:43;8.30;;;3.10;;
10174;SDS011;18221;38.704;0.152;2022-12-16T16:09:32;5.67;;;3.10;;
10174;SDS011;18221;38.704;0.152;2022-12-16T16:12:22;5.23;;;3.20;;
10174;SDS011;18221;38.704;0.152;2022-12-16T16:15:09;5.23;;;3.07;;
10174;SDS011;18221;38.704;0.152;2022-12-16T16:17:57;3.57;;;2.60;;
10174;SDS011;18221;38.704;0.152;2022-12-16T16:20:45;5.87;;;2.90;;
10174;SDS011;18221;38.704;0.152;2022-12-16T16:23:32;4.93;;;2.90;;
10174;SDS011;18221;38.704;0.152;2022-12-16T16:26:32;5.87;;;2.80;;
10174;SDS011;18221;38.704;0.152;2022-12-16T16:29:18;5.17;;;2.53;;
10174;SDS011;18221;38.704;0.152;2022-12-16T16:32:06;5.30;;;2.93;;
10174;SDS011;18221;38.704;0.152;2022-12-16T16:34:53;3.60;;;2.50;;
10174;SDS011;18221;38.704;0.152;2022-12-16T16:37:40;7.33;;;2.73;;
10174;SDS011;18221;38.704;0.152;2022-12-16T16:40:28;5.37;;;2.70;;
10174;SDS011;18221;38.704;0.152;2022-12-16T16:43:16;5.97;;;2.20;;
10174;SDS011;18221;38.704;0.152;2022-12-16T16:46:06;3.97;;;2.80;;
10174;SDS011;18221;38.704;0.152;2022-12-16T16:49:21;7.17;;;2.93;;
10174;SDS011;18221;38.704;0.152;2022-12-16T16:52:12;3.80;;;2.70;;
10174;SDS011;18221;38.704;0.152;2022-12-16T16:55:01;5.43;;;2.40;;
10174;SDS011;18221;38.704;0.152;2022-12-16T16:57:50;4.23;;;2.30;;
10174;SDS011;18221;38.704;0.152;2022-12-16T17:00:37;6.63;;;2.50;;
10174;SDS011;18221;38.704;0.152;2022-12-16T17:03:22;8.33;;;2.40;;
10174;SDS011;18221;38.704;0.152;2022-12-16T17:06:07;4.33;;;2.80;;
10174;SDS011;18221;38.704;0.152;2022-12-16T17:08:52;5.20;;;2.67;;
10174;SDS011;18221;38.704;0.152;2022-12-16T17:11:38;4.67;;;2.47;;
10174;SDS011;18221;38.704;0.152;2022-12-16T17:14:25;7.17;;;2.70;;
10174;SDS011;18221;38.704;0.152;2022-12-16T17:17:11;7.10;;;3.20;;
10174;SDS011;18221;38.704;0.152;2022-12-16T17:19:56;5.90;;;3.03;;